sensor_id;sensor_type;location;lat;lon;timestamp;P1;durP1;ratioP1;P2;durP2;ratioP2
29314;SDS011;16320;53.954;9.506;2023-12-28T00:01:40;7.55;;;3.80;;
29314;SDS011;16320;53.954;9.506;2023-12-28T00:04:09;8.63;;;3.85;;
29314;SDS011;16320;53.954;9.506;2023-12-28T00:06:39;9.90;;;4.28;;
29314;SDS011;16320;53.954;9.506;2023-12-28T00:09:09;6.95;;;4.07;;
29314;SDS011;16320;53.954;9.506;2023-12-28T00:11:38;7.50;;;4.13;;
29314;SDS011;16320;53.954;9.506;2023-12-28T00:14:07;8.73;;;3.83;;
29314;SDS011;16320;53.954;9.506;2023-12-28T00:16:35;8.85;;;4.72;;
29314;SDS011;16320;53.954;9.506;2023-12-28T00:19:04;14.57;;;5.13;;
29314;SDS011;16320;53.954;9.506;2023-12-28T00:21:33;6.70;;;4.05;;
29314;SDS011;16320;53.954;9.506;2023-12-28T00:24:01;5.85;;;3.70;;
29314;SDS011;16320;53.954;9.506;2023-12-28T00:26:31;7.40;;;4.60;;
29314;SDS011;16320;53.954;9.506;2023-12-28T00:28:59;7.45;;;4.07;;
29314;SDS011;16320;53.954;9.506;2023-12-28T00:31:28;6.78;;;4.18;;
29314;SDS011;16320;53.954;9.506;2023-12-28T00:33:56;7.78;;;3.80;;
29314;SDS011;16320;53.954;9.506;2023-12-28T00:36:24;8.77;;;4.55;;
29314;SDS011;16320;53.954;9.506;2023-12-28T00:38:53;7.95;;;4.40;;
29314;SDS011;16320;53.954;9.506;2023-12-28T00:41:21;8.07;;;4.22;;
29314;SDS011;16320;53.954;9.506;2023-12-28T00:43:49;10.32;;;5.25;;
29314;SDS011;16320;53.954;9.506;2023-12-28T00:46:18;8.68;;;4.32;;
29314;SDS011;16320;53.954;9.506;2023-12-28T00:48:46;9.50;;;4.63;;
29314;SDS011;16320;53.954;9.506;2023-12-28T00:51:14;11.27;;;4.80;;
29314;SDS011;16320;53.954;9.506;2023-12-28T00:53:43;9.43;;;3.75;;
29314;SDS011;16320;53.954;9.506;2023-12-28T00:56:11;11.45;;;4.43;;
29314;SDS011;16320;53.954;9.506;2023-12-28T00:58:39;9.85;;;4.70;;
29314;SDS011;16320;53.954;9.506;2023-12-28T01:01:09;8.40;;;4.60;;
29314;SDS011;16320;53.954;9.506;2023-12-28T01:03:38;11.23;;;4.00;;
29314;SDS011;16320;53.954;9.506;2023-12-28T01:06:07;8.27;;;3.90;;
29314;SDS011;16320;53.954;9.506;2023-12-28T01:08:36;9.85;;;4.75;;
29314;SDS011;16320;53.954;9.506;2023-12-28T01:11:04;9.00;;;3.88;;
29314;SDS011;16320;53.954;9.506;2023-12-28T01:13:32;9.70;;;4.57;;
29314;SDS011;16320;53.954;9.506;2023-12-28T01:16:05;6.53;;;4.72;;
29314;SDS011;16320;53.954;9.506;2023-12-28T01:18:34;8.82;;;4.28;;
29314;SDS011;16320;53.954;9.506;2023-12-28T01:21:02;6.97;;;3.90;;
29314;SDS011;16320;53.954;9.506;2023-12-28T01:23:31;8.07;;;4.28;;
29314;SDS011;16320;53.954;9.506;2023-12-28T01:26:01;7.85;;;4.97;;
29314;SDS011;16320;53.954;9.506;2023-12-28T01:28:29;8.18;;;5.05;;
29314;SDS011;16320;53.954;9.506;2023-12-28T01:30:58;6.95;;;4.00;;
29314;SDS011;16320;53.954;9.506;2023-12-28T01:33:26;6.15;;;4.00;;
29314;SDS011;16320;53.954;9.506;2023-12-28T01:35:55;9.95;;;4.32;;
29314;SDS011;16320;53.954;9.506;2023-12-28T01:38:24;11.35;;;4.20;;
29314;SDS011;16320;53.954;9.506;2023-12-28T01:40:52;6.97;;;4.35;;
29314;SDS011;16320;53.954;9.506;2023-12-28T01:43:22;7.15;;;4.47;;
29314;SDS011;16320;53.954;9.506;2023-12-28T01:45:50;7.97;;;4.15;;
29314;SDS011;16320;53.954;9.506;2023-12-28T01:48:18;9.80;;;3.95;;
29314;SDS011;16320;53.954;9.506;2023-12-28T01:50:47;8.85;;;4.00;;
29314;SDS011;16320;53.954;9.506;2023-12-28T01:53:16;10.63;;;4.07;;
29314;SDS011;16320;53.954;9.506;2023-12-28T01:55:45;8.15;;;3.90;;
29314;SDS011;16320;53.954;9.506;2023-12-28T01:58:13;10.70;;;4.00;;
29314;SDS011;16320;53.954;9.506;2023-12-28T02:00:44;7.55;;;3.72;;
29314;SDS011;16320;53.954;9.506;2023-12-28T02:03:13;6.35;;;3.58;;
29314;SDS011;16320;53.954;9.506;2023-12-28T02:05:44;5.47;;;3.80;;
29314;SDS011;16320;53.954;9.506;2023-12-28T02:08:13;6.93;;;4.35;;
29314;SDS011;16320;53.954;9.506;2023-12-28T02:10:42;7.85;;;3.88;;
29314;SDS011;16320;53.954;9.506;2023-12-28T02:13:11;7.50;;;3.75;;
29314;SDS011;16320;53.954;9.506;2023-12-28T02:15:40;7.43;;;4.30;;
29314;SDS011;16320;53.954;9.506;2023-12-28T02:18:12;7.18;;;3.45;;
29314;SDS011;16320;53.954;9.506;2023-12-28T02:20:44;10.80;;;4.32;;
29314;SDS011;16320;53.954;9.506;2023-12-28T02:23:13;9.68;;;3.63;;
29314;SDS011;16320;53.954;9.506;2023-12-28T02:25:42;6.45;;;4.05;;
29314;SDS011;16320;53.954;9.506;2023-12-28T02:28:10;5.57;;;3.60;;
29314;SDS011;16320;53.954;9.506;2023-12-28T02:30:39;6.70;;;3.63;;
29314;SDS011;16320;53.954;9.506;2023-12-28T02:33:11;7.15;;;3.50;;
29314;SDS011;16320;53.954;9.506;2023-12-28T02:35:52;6.32;;;3.92;;
29314;SDS011;16320;53.954;9.506;2023-12-28T02:38:23;9.15;;;3.60;;
29314;SDS011;16320;53.954;9.506;2023-12-28T02:40:55;5.97;;;3.63;;
29314;SDS011;16320;53.954;9.506;2023-12-28T02:43:23;6.38;;;3.72;;
29314;SDS011;16320;53.954;9.506;2023-12-28T02:45:52;8.65;;;3.83;;
29314;SDS011;16320;53.954;9.506;2023-12-28T02:48:20;9.27;;;3.95;;
29314;SDS011;16320;53.954;9.506;2023-12-28T02:50:51;9.30;;;3.95;;
29314;SDS011;16320;53.954;9.506;2023-12-28T02:53:20;6.88;;;3.58;;
29314;SDS011;16320;53.954;9.506;2023-12-28T02:55:48;7.40;;;3.60;;
29314;SDS011;16320;53.954;9.506;2023-12-28T02:58:16;8.00;;;3.88;;
29314;SDS011;16320;53.954;9.506;2023-12-28T03:00:44;8.55;;;4.72;;
29314;SDS011;16320;53.954;9.506;2023-12-28T03:03:13;6.25;;;3.42;;
29314;SDS011;16320;53.954;9.506;2023-12-28T03:05:42;6.95;;;4.05;;
29314;SDS011;16320;53.954;9.506;2023-12-28T03:08:10;6.93;;;3.47;;
29314;SDS011;16320;53.954;9.506;2023-12-28T03:10:39;8.02;;;4.82;;
29314;SDS011;16320;53.954;9.506;2023-12-28T03:13:07;7.55;;;3.97;;
29314;SDS011;16320;53.954;9.506;2023-12-28T03:15:36;8.35;;;3.67;;
29314;SDS011;16320;53.954;9.506;2023-12-28T03:18:04;8.23;;;3.40;;
29314;SDS011;16320;53.954;9.506;2023-12-28T03:20:33;7.20;;;3.90;;
29314;SDS011;16320;53.954;9.506;2023-12-28T03:23:01;7.45;;;4.00;;
29314;SDS011;16320;53.954;9.506;2023-12-28T03:25:29;9.10;;;3.60;;
29314;SDS011;16320;53.954;9.506;2023-12-28T03:27:57;6.97;;;4.00;;
29314;SDS011;16320;53.954;9.506;2023-12-28T03:30:26;7.40;;;3.85;;
29314;SDS011;16320;53.954;9.506;2023-12-28T03:32:58;8.55;;;3.72;;
29314;SDS011;16320;53.954;9.506;2023-12-28T03:35:27;8.60;;;3.97;;
29314;SDS011;16320;53.954;9.506;2023-12-28T03:37:55;8.23;;;4.13;;
29314;SDS011;16320;53.954;9.506;2023-12-28T03:40:24;11.05;;;4.50;;
29314;SDS011;16320;53.954;9.506;2023-12-28T03:42:52;10.98;;;3.25;;
29314;SDS011;16320;53.954;9.506;2023-12-28T03:45:21;10.48;;;4.03;;
29314;SDS011;16320;53.954;9.506;2023-12-28T03:47:50;7.90;;;3.63;;
29314;SDS011;16320;53.954;9.506;2023-12-28T03:50:18;6.63;;;4.07;;
29314;SDS011;16320;53.954;9.506;2023-12-28T03:52:47;8.10;;;3.05;;
29314;SDS011;16320;53.954;9.506;2023-12-28T03:55:15;8.13;;;3.70;;
29314;SDS011;16320;53.954;9.506;2023-12-28T03:57:45;7.07;;;3.15;;
29314;SDS011;16320;53.954;9.506;2023-12-28T04:00:14;4.82;;;3.47;;
29314;SDS011;16320;53.954;9.506;2023-12-28T04:02:45;7.38;;;3.90;;
29314;SDS011;16320;53.954;9.506;2023-12-28T04:05:16;6.60;;;3.35;;
29314;SDS011;16320;53.954;9.506;2023-12-28T04:07:44;10.48;;;3.90;;
29314;SDS011;16320;53.954;9.506;2023-12-28T04:10:13;7.80;;;3.53;;
29314;SDS011;16320;53.954;9.506;2023-12-28T04:12:58;11.45;;;4.03;;
29314;SDS011;16320;53.954;9.506;2023-12-28T04:15:27;8.60;;;3.78;;
29314;SDS011;16320;53.954;9.506;2023-12-28T04:17:56;7.10;;;3.97;;
29314;SDS011;16320;53.954;9.506;2023-12-28T04:20:25;11.90;;;4.20;;
29314;SDS011;16320;53.954;9.506;2023-12-28T04:22:54;11.52;;;3.88;;
29314;SDS011;16320;53.954;9.506;2023-12-28T04:25:22;6.50;;;3.78;;
29314;SDS011;16320;53.954;9.506;2023-12-28T04:27:51;9.10;;;4.32;;
29314;SDS011;16320;53.954;9.506;2023-12-28T04:30:19;9.15;;;4.63;;
29314;SDS011;16320;53.954;9.506;2023-12-28T04:32:47;7.18;;;4.03;;
29314;SDS011;16320;53.954;9.506;2023-12-28T04:35:15;8.65;;;3.75;;
29314;SDS011;16320;53.954;9.506;2023-12-28T04:37:43;8.00;;;4.20;;
29314;SDS011;16320;53.954;9.506;2023-12-28T04:40:13;9.07;;;4.53;;
29314;SDS011;16320;53.954;9.506;2023-12-28T04:42:43;9.60;;;3.80;;
29314;SDS011;16320;53.954;9.506;2023-12-28T04:45:13;7.63;;;4.60;;
29314;SDS011;16320;53.954;9.506;2023-12-28T04:47:42;5.72;;;3.85;;
29314;SDS011;16320;53.954;9.506;2023-12-28T04:50:11;9.50;;;4.18;;
29314;SDS011;16320;53.954;9.506;2023-12-28T04:52:39;11.63;;;3.92;;
29314;SDS011;16320;53.954;9.506;2023-12-28T04:55:08;9.43;;;4.10;;
29314;SDS011;16320;53.954;9.506;2023-12-28T04:57:36;11.20;;;4.15;;
29314;SDS011;16320;53.954;9.506;2023-12-28T05:00:04;10.07;;;3.85;;
29314;SDS011;16320;53.954;9.506;2023-12-28T05:02:34;9.82;;;4.13;;
29314;SDS011;16320;53.954;9.506;2023-12-28T05:05:04;9.45;;;4.07;;
29314;SDS011;16320;53.954;9.506;2023-12-28T05:07:34;9.57;;;4.18;;
29314;SDS011;16320;53.954;9.506;2023-12-28T05:10:02;8.80;;;3.97;;
29314;SDS011;16320;53.954;9.506;2023-12-28T05:12:32;9.15;;;3.80;;
29314;SDS011;16320;53.954;9.506;2023-12-28T05:15:09;6.40;;;3.55;;
29314;SDS011;16320;53.954;9.506;2023-12-28T05:17:39;8.15;;;4.07;;
29314;SDS011;16320;53.954;9.506;2023-12-28T05:20:07;8.55;;;3.20;;
29314;SDS011;16320;53.954;9.506;2023-12-28T05:22:36;9.35;;;3.85;;
29314;SDS011;16320;53.954;9.506;2023-12-28T05:25:04;8.80;;;3.30;;
29314;SDS011;16320;53.954;9.506;2023-12-28T05:27:33;8.18;;;3.47;;
29314;SDS011;16320;53.954;9.506;2023-12-28T05:30:02;16.30;;;3.95;;
29314;SDS011;16320;53.954;9.506;2023-12-28T05:32:31;9.57;;;3.80;;
29314;SDS011;16320;53.954;9.506;2023-12-28T05:34:59;10.23;;;3.55;;
29314;SDS011;16320;53.954;9.506;2023-12-28T05:37:27;9.13;;;3.50;;
29314;SDS011;16320;53.954;9.506;2023-12-28T05:39:55;7.55;;;3.25;;
29314;SDS011;16320;53.954;9.506;2023-12-28T05:42:24;10.10;;;3.95;;
29314;SDS011;16320;53.954;9.506;2023-12-28T05:44:52;9.10;;;3.50;;
29314;SDS011;16320;53.954;9.506;2023-12-28T05:47:20;9.52;;;3.30;;
29314;SDS011;16320;53.954;9.506;2023-12-28T05:49:49;12.32;;;3.85;;
29314;SDS011;16320;53.954;9.506;2023-12-28T05:52:18;8.30;;;3.25;;
29314;SDS011;16320;53.954;9.506;2023-12-28T05:54:47;5.00;;;3.28;;
29314;SDS011;16320;53.954;9.506;2023-12-28T05:57:15;9.02;;;3.20;;
29314;SDS011;16320;53.954;9.506;2023-12-28T05:59:43;5.68;;;3.20;;
29314;SDS011;16320;53.954;9.506;2023-12-28T06:02:11;7.18;;;3.20;;
29314;SDS011;16320;53.954;9.506;2023-12-28T06:04:40;7.07;;;3.20;;
29314;SDS011;16320;53.954;9.506;2023-12-28T06:07:09;7.35;;;3.20;;
29314;SDS011;16320;53.954;9.506;2023-12-28T06:09:38;7.05;;;3.20;;
29314;SDS011;16320;53.954;9.506;2023-12-28T06:12:07;8.52;;;2.80;;
29314;SDS011;16320;53.954;9.506;2023-12-28T06:14:35;6.25;;;3.53;;
29314;SDS011;16320;53.954;9.506;2023-12-28T06:17:06;8.85;;;3.05;;
29314;SDS011;16320;53.954;9.506;2023-12-28T06:19:34;13.95;;;3.78;;
29314;SDS011;16320;53.954;9.506;2023-12-28T06:22:02;13.20;;;3.70;;
29314;SDS011;16320;53.954;9.506;2023-12-28T06:24:31;11.25;;;3.72;;
29314;SDS011;16320;53.954;9.506;2023-12-28T06:27:00;9.38;;;3.10;;
29314;SDS011;16320;53.954;9.506;2023-12-28T06:29:28;5.80;;;3.10;;
29314;SDS011;16320;53.954;9.506;2023-12-28T06:31:57;7.05;;;3.30;;
29314;SDS011;16320;53.954;9.506;2023-12-28T06:34:25;4.88;;;2.88;;
29314;SDS011;16320;53.954;9.506;2023-12-28T06:36:54;11.73;;;3.55;;
29314;SDS011;16320;53.954;9.506;2023-12-28T06:39:22;8.10;;;3.75;;
29314;SDS011;16320;53.954;9.506;2023-12-28T06:41:51;8.00;;;3.58;;
29314;SDS011;16320;53.954;9.506;2023-12-28T06:44:19;9.90;;;3.22;;
29314;SDS011;16320;53.954;9.506;2023-12-28T06:46:48;5.40;;;3.00;;
29314;SDS011;16320;53.954;9.506;2023-12-28T06:49:17;10.55;;;3.10;;
29314;SDS011;16320;53.954;9.506;2023-12-28T06:51:45;5.70;;;2.92;;
29314;SDS011;16320;53.954;9.506;2023-12-28T06:54:13;8.18;;;3.10;;
29314;SDS011;16320;53.954;9.506;2023-12-28T06:56:43;8.82;;;2.58;;
29314;SDS011;16320;53.954;9.506;2023-12-28T06:59:15;14.13;;;3.28;;
29314;SDS011;16320;53.954;9.506;2023-12-28T07:01:43;15.63;;;3.13;;
29314;SDS011;16320;53.954;9.506;2023-12-28T07:04:14;9.50;;;3.05;;
29314;SDS011;16320;53.954;9.506;2023-12-28T07:06:44;11.95;;;3.03;;
29314;SDS011;16320;53.954;9.506;2023-12-28T07:09:12;9.60;;;2.85;;
29314;SDS011;16320;53.954;9.506;2023-12-28T07:11:41;11.43;;;3.28;;
29314;SDS011;16320;53.954;9.506;2023-12-28T07:14:12;10.95;;;3.10;;
29314;SDS011;16320;53.954;9.506;2023-12-28T07:16:41;13.77;;;3.25;;
29314;SDS011;16320;53.954;9.506;2023-12-28T07:19:09;5.00;;;2.42;;
29314;SDS011;16320;53.954;9.506;2023-12-28T07:21:38;13.07;;;3.17;;
29314;SDS011;16320;53.954;9.506;2023-12-28T07:24:07;7.85;;;3.10;;
29314;SDS011;16320;53.954;9.506;2023-12-28T07:26:38;7.72;;;3.03;;
29314;SDS011;16320;53.954;9.506;2023-12-28T07:29:06;8.50;;;2.95;;
29314;SDS011;16320;53.954;9.506;2023-12-28T07:31:37;6.30;;;2.75;;
29314;SDS011;16320;53.954;9.506;2023-12-28T07:34:07;9.52;;;2.78;;
29314;SDS011;16320;53.954;9.506;2023-12-28T07:36:35;7.80;;;2.88;;
29314;SDS011;16320;53.954;9.506;2023-12-28T07:39:03;7.93;;;2.92;;
29314;SDS011;16320;53.954;9.506;2023-12-28T07:41:32;8.90;;;2.60;;
29314;SDS011;16320;53.954;9.506;2023-12-28T07:44:00;9.13;;;2.92;;
29314;SDS011;16320;53.954;9.506;2023-12-28T07:46:29;5.20;;;2.25;;
29314;SDS011;16320;53.954;9.506;2023-12-28T07:48:57;11.05;;;2.78;;
29314;SDS011;16320;53.954;9.506;2023-12-28T07:51:27;6.90;;;2.92;;
29314;SDS011;16320;53.954;9.506;2023-12-28T07:53:56;10.30;;;3.17;;
29314;SDS011;16320;53.954;9.506;2023-12-28T07:56:24;7.82;;;3.13;;
29314;SDS011;16320;53.954;9.506;2023-12-28T07:58:52;6.53;;;2.92;;
29314;SDS011;16320;53.954;9.506;2023-12-28T08:01:21;11.30;;;3.75;;
29314;SDS011;16320;53.954;9.506;2023-12-28T08:03:53;12.05;;;2.58;;
29314;SDS011;16320;53.954;9.506;2023-12-28T08:06:34;12.50;;;2.78;;
29314;SDS011;16320;53.954;9.506;2023-12-28T08:09:02;9.70;;;2.65;;
29314;SDS011;16320;53.954;9.506;2023-12-28T08:11:30;10.48;;;2.53;;
29314;SDS011;16320;53.954;9.506;2023-12-28T08:14:00;7.82;;;2.20;;
29314;SDS011;16320;53.954;9.506;2023-12-28T08:16:29;13.82;;;2.40;;
29314;SDS011;16320;53.954;9.506;2023-12-28T08:18:57;12.23;;;2.78;;
29314;SDS011;16320;53.954;9.506;2023-12-28T08:21:26;7.10;;;2.60;;
29314;SDS011;16320;53.954;9.506;2023-12-28T08:23:55;10.57;;;2.33;;
29314;SDS011;16320;53.954;9.506;2023-12-28T08:26:25;14.85;;;2.60;;
29314;SDS011;16320;53.954;9.506;2023-12-28T08:28:54;9.18;;;2.28;;
29314;SDS011;16320;53.954;9.506;2023-12-28T08:31:22;8.70;;;3.05;;
29314;SDS011;16320;53.954;9.506;2023-12-28T08:33:50;10.30;;;3.00;;
29314;SDS011;16320;53.954;9.506;2023-12-28T08:36:19;12.60;;;2.47;;
29314;SDS011;16320;53.954;9.506;2023-12-28T08:38:47;11.75;;;2.13;;
29314;SDS011;16320;53.954;9.506;2023-12-28T08:41:17;13.27;;;2.30;;
29314;SDS011;16320;53.954;9.506;2023-12-28T08:43:53;16.38;;;4.95;;
29314;SDS011;16320;53.954;9.506;2023-12-28T08:46:22;16.95;;;3.05;;
29314;SDS011;16320;53.954;9.506;2023-12-28T08:48:51;11.02;;;2.50;;
29314;SDS011;16320;53.954;9.506;2023-12-28T08:51:19;9.75;;;2.10;;
29314;SDS011;16320;53.954;9.506;2023-12-28T08:53:48;11.43;;;2.75;;
29314;SDS011;16320;53.954;9.506;2023-12-28T08:56:17;14.63;;;2.78;;
29314;SDS011;16320;53.954;9.506;2023-12-28T08:58:48;9.40;;;1.98;;
29314;SDS011;16320;53.954;9.506;2023-12-28T09:01:23;8.68;;;2.00;;
29314;SDS011;16320;53.954;9.506;2023-12-28T09:03:53;10.15;;;2.30;;
29314;SDS011;16320;53.954;9.506;2023-12-28T09:06:22;14.98;;;2.55;;
29314;SDS011;16320;53.954;9.506;2023-12-28T09:08:52;7.57;;;2.03;;
29314;SDS011;16320;53.954;9.506;2023-12-28T09:11:23;19.30;;;2.58;;
29314;SDS011;16320;53.954;9.506;2023-12-28T09:13:51;11.70;;;2.70;;
29314;SDS011;16320;53.954;9.506;2023-12-28T09:16:19;11.25;;;2.40;;
29314;SDS011;16320;53.954;9.506;2023-12-28T09:18:48;8.05;;;1.95;;
29314;SDS011;16320;53.954;9.506;2023-12-28T09:21:19;8.25;;;1.67;;
29314;SDS011;16320;53.954;9.506;2023-12-28T09:23:48;10.30;;;2.45;;
29314;SDS011;16320;53.954;9.506;2023-12-28T09:26:16;13.93;;;2.60;;
29314;SDS011;16320;53.954;9.506;2023-12-28T09:28:44;9.65;;;2.08;;
29314;SDS011;16320;53.954;9.506;2023-12-28T09:31:12;14.57;;;2.72;;
29314;SDS011;16320;53.954;9.506;2023-12-28T09:33:41;13.45;;;2.45;;
29314;SDS011;16320;53.954;9.506;2023-12-28T09:36:10;13.02;;;2.53;;
29314;SDS011;16320;53.954;9.506;2023-12-28T09:38:40;9.73;;;2.20;;
29314;SDS011;16320;53.954;9.506;2023-12-28T09:41:12;16.98;;;2.78;;
29314;SDS011;16320;53.954;9.506;2023-12-28T09:43:58;20.35;;;3.05;;
29314;SDS011;16320;53.954;9.506;2023-12-28T09:46:46;17.55;;;3.20;;
29314;SDS011;16320;53.954;9.506;2023-12-28T09:49:15;9.60;;;2.30;;
29314;SDS011;16320;53.954;9.506;2023-12-28T09:51:45;14.73;;;2.35;;
29314;SDS011;16320;53.954;9.506;2023-12-28T09:54:14;11.93;;;2.40;;
29314;SDS011;16320;53.954;9.506;2023-12-28T09:56:44;10.52;;;2.30;;
29314;SDS011;16320;53.954;9.506;2023-12-28T09:59:15;19.20;;;4.85;;
29314;SDS011;16320;53.954;9.506;2023-12-28T10:01:46;15.80;;;2.20;;
29314;SDS011;16320;53.954;9.506;2023-12-28T10:04:15;14.80;;;2.45;;
29314;SDS011;16320;53.954;9.506;2023-12-28T10:06:44;12.68;;;2.33;;
29314;SDS011;16320;53.954;9.506;2023-12-28T10:09:13;15.07;;;2.25;;
29314;SDS011;16320;53.954;9.506;2023-12-28T10:11:41;8.85;;;2.78;;
29314;SDS011;16320;53.954;9.506;2023-12-28T10:14:12;11.95;;;2.45;;
29314;SDS011;16320;53.954;9.506;2023-12-28T10:16:55;11.98;;;3.20;;
29314;SDS011;16320;53.954;9.506;2023-12-28T10:19:23;11.18;;;2.17;;
29314;SDS011;16320;53.954;9.506;2023-12-28T10:21:52;20.85;;;2.83;;
29314;SDS011;16320;53.954;9.506;2023-12-28T10:24:22;9.32;;;2.15;;
29314;SDS011;16320;53.954;9.506;2023-12-28T10:26:50;15.70;;;2.40;;
29314;SDS011;16320;53.954;9.506;2023-12-28T10:29:21;13.30;;;2.60;;
29314;SDS011;16320;53.954;9.506;2023-12-28T10:31:54;13.10;;;2.15;;
29314;SDS011;16320;53.954;9.506;2023-12-28T10:34:24;16.58;;;3.08;;
29314;SDS011;16320;53.954;9.506;2023-12-28T10:36:54;18.33;;;3.15;;
29314;SDS011;16320;53.954;9.506;2023-12-28T10:39:23;18.58;;;2.78;;
29314;SDS011;16320;53.954;9.506;2023-12-28T10:41:54;10.13;;;2.05;;
29314;SDS011;16320;53.954;9.506;2023-12-28T10:44:25;13.80;;;3.00;;
29314;SDS011;16320;53.954;9.506;2023-12-28T10:49:30;13.07;;;2.22;;
29314;SDS011;16320;53.954;9.506;2023-12-28T10:52:03;18.85;;;3.22;;
29314;SDS011;16320;53.954;9.506;2023-12-28T10:54:44;11.95;;;2.83;;
29314;SDS011;16320;53.954;9.506;2023-12-28T10:57:29;15.68;;;3.08;;
29314;SDS011;16320;53.954;9.506;2023-12-28T11:00:10;24.20;;;2.58;;
29314;SDS011;16320;53.954;9.506;2023-12-28T11:02:45;19.30;;;2.70;;
29314;SDS011;16320;53.954;9.506;2023-12-28T11:07:50;18.95;;;3.13;;
29314;SDS011;16320;53.954;9.506;2023-12-28T11:10:22;22.05;;;2.42;;
29314;SDS011;16320;53.954;9.506;2023-12-28T11:12:53;19.20;;;2.97;;
29314;SDS011;16320;53.954;9.506;2023-12-28T11:15:21;13.50;;;2.83;;
29314;SDS011;16320;53.954;9.506;2023-12-28T11:17:51;12.35;;;2.42;;
29314;SDS011;16320;53.954;9.506;2023-12-28T11:20:20;29.75;;;4.28;;
29314;SDS011;16320;53.954;9.506;2023-12-28T11:22:50;16.10;;;2.85;;
29314;SDS011;16320;53.954;9.506;2023-12-28T11:25:19;15.10;;;2.60;;
29314;SDS011;16320;53.954;9.506;2023-12-28T11:27:47;17.67;;;2.90;;
29314;SDS011;16320;53.954;9.506;2023-12-28T11:30:15;19.45;;;2.92;;
29314;SDS011;16320;53.954;9.506;2023-12-28T11:32:47;18.58;;;4.03;;
29314;SDS011;16320;53.954;9.506;2023-12-28T11:35:15;18.10;;;3.47;;
29314;SDS011;16320;53.954;9.506;2023-12-28T11:37:44;15.60;;;2.88;;
29314;SDS011;16320;53.954;9.506;2023-12-28T11:40:18;23.20;;;3.53;;
29314;SDS011;16320;53.954;9.506;2023-12-28T11:42:49;24.10;;;3.33;;
29314;SDS011;16320;53.954;9.506;2023-12-28T11:45:22;22.77;;;3.60;;
29314;SDS011;16320;53.954;9.506;2023-12-28T11:48:00;17.20;;;3.08;;
29314;SDS011;16320;53.954;9.506;2023-12-28T11:50:31;25.15;;;3.20;;
29314;SDS011;16320;53.954;9.506;2023-12-28T11:53:00;20.00;;;2.65;;
29314;SDS011;16320;53.954;9.506;2023-12-28T11:55:28;18.55;;;3.88;;
29314;SDS011;16320;53.954;9.506;2023-12-28T11:57:56;26.13;;;3.58;;
29314;SDS011;16320;53.954;9.506;2023-12-28T12:00:26;22.02;;;4.22;;
29314;SDS011;16320;53.954;9.506;2023-12-28T12:02:55;23.60;;;4.40;;
29314;SDS011;16320;53.954;9.506;2023-12-28T12:05:26;20.23;;;3.30;;
29314;SDS011;16320;53.954;9.506;2023-12-28T12:07:57;21.35;;;3.13;;
29314;SDS011;16320;53.954;9.506;2023-12-28T12:10:25;28.83;;;4.65;;
29314;SDS011;16320;53.954;9.506;2023-12-28T12:12:57;22.08;;;3.65;;
29314;SDS011;16320;53.954;9.506;2023-12-28T12:15:29;16.75;;;3.00;;
29314;SDS011;16320;53.954;9.506;2023-12-28T12:17:58;20.17;;;4.28;;
29314;SDS011;16320;53.954;9.506;2023-12-28T12:20:29;20.38;;;3.65;;
29314;SDS011;16320;53.954;9.506;2023-12-28T12:23:00;22.58;;;3.78;;
29314;SDS011;16320;53.954;9.506;2023-12-28T12:25:29;18.35;;;4.32;;
29314;SDS011;16320;53.954;9.506;2023-12-28T12:27:57;18.02;;;3.17;;
29314;SDS011;16320;53.954;9.506;2023-12-28T12:30:25;21.88;;;4.65;;
29314;SDS011;16320;53.954;9.506;2023-12-28T12:32:55;21.95;;;4.40;;
29314;SDS011;16320;53.954;9.506;2023-12-28T12:35:25;19.52;;;3.40;;
29314;SDS011;16320;53.954;9.506;2023-12-28T12:37:55;18.15;;;3.70;;
29314;SDS011;16320;53.954;9.506;2023-12-28T12:40:24;30.98;;;4.50;;
29314;SDS011;16320;53.954;9.506;2023-12-28T12:42:55;29.13;;;4.78;;
29314;SDS011;16320;53.954;9.506;2023-12-28T12:45:24;23.42;;;3.95;;
29314;SDS011;16320;53.954;9.506;2023-12-28T12:47:52;28.67;;;3.97;;
29314;SDS011;16320;53.954;9.506;2023-12-28T12:50:20;24.35;;;4.00;;
29314;SDS011;16320;53.954;9.506;2023-12-28T12:52:50;26.65;;;3.25;;
29314;SDS011;16320;53.954;9.506;2023-12-28T12:55:18;21.58;;;3.10;;
29314;SDS011;16320;53.954;9.506;2023-12-28T12:57:47;24.83;;;3.40;;
29314;SDS011;16320;53.954;9.506;2023-12-28T13:00:16;24.33;;;3.47;;
29314;SDS011;16320;53.954;9.506;2023-12-28T13:02:49;23.23;;;3.40;;
29314;SDS011;16320;53.954;9.506;2023-12-28T13:05:26;21.92;;;3.28;;
29314;SDS011;16320;53.954;9.506;2023-12-28T13:07:55;19.73;;;3.45;;
29314;SDS011;16320;53.954;9.506;2023-12-28T13:10:25;20.42;;;3.03;;
29314;SDS011;16320;53.954;9.506;2023-12-28T13:12:54;21.25;;;3.80;;
29314;SDS011;16320;53.954;9.506;2023-12-28T13:15:22;24.83;;;3.83;;
29314;SDS011;16320;53.954;9.506;2023-12-28T13:17:51;24.30;;;4.00;;
29314;SDS011;16320;53.954;9.506;2023-12-28T13:20:22;22.17;;;3.83;;
29314;SDS011;16320;53.954;9.506;2023-12-28T13:22:51;21.38;;;3.53;;
29314;SDS011;16320;53.954;9.506;2023-12-28T13:25:21;25.63;;;4.20;;
29314;SDS011;16320;53.954;9.506;2023-12-28T13:27:54;18.33;;;3.53;;
29314;SDS011;16320;53.954;9.506;2023-12-28T13:30:22;19.48;;;3.80;;
29314;SDS011;16320;53.954;9.506;2023-12-28T13:32:55;24.90;;;4.15;;
29314;SDS011;16320;53.954;9.506;2023-12-28T13:35:24;18.67;;;3.10;;
29314;SDS011;16320;53.954;9.506;2023-12-28T13:37:55;26.27;;;3.80;;
29314;SDS011;16320;53.954;9.506;2023-12-28T13:40:33;23.13;;;3.67;;
29314;SDS011;16320;53.954;9.506;2023-12-28T13:43:02;23.00;;;5.25;;
29314;SDS011;16320;53.954;9.506;2023-12-28T13:45:31;21.52;;;3.78;;
29314;SDS011;16320;53.954;9.506;2023-12-28T13:47:59;25.60;;;3.05;;
29314;SDS011;16320;53.954;9.506;2023-12-28T13:50:31;17.45;;;3.50;;
29314;SDS011;16320;53.954;9.506;2023-12-28T13:53:00;22.65;;;4.45;;
29314;SDS011;16320;53.954;9.506;2023-12-28T13:55:31;24.63;;;3.95;;
29314;SDS011;16320;53.954;9.506;2023-12-28T13:58:02;16.45;;;3.35;;
29314;SDS011;16320;53.954;9.506;2023-12-28T14:00:31;22.92;;;3.60;;
29314;SDS011;16320;53.954;9.506;2023-12-28T14:03:05;18.05;;;3.00;;
29314;SDS011;16320;53.954;9.506;2023-12-28T14:05:36;22.55;;;4.03;;
29314;SDS011;16320;53.954;9.506;2023-12-28T14:08:13;22.58;;;3.70;;
29314;SDS011;16320;53.954;9.506;2023-12-28T14:10:43;14.52;;;3.67;;
29314;SDS011;16320;53.954;9.506;2023-12-28T14:13:12;19.60;;;4.03;;
29314;SDS011;16320;53.954;9.506;2023-12-28T14:15:40;23.20;;;3.90;;
29314;SDS011;16320;53.954;9.506;2023-12-28T14:18:08;16.88;;;4.35;;
29314;SDS011;16320;53.954;9.506;2023-12-28T14:20:36;21.70;;;3.20;;
29314;SDS011;16320;53.954;9.506;2023-12-28T14:23:05;15.65;;;3.38;;
29314;SDS011;16320;53.954;9.506;2023-12-28T14:25:34;21.08;;;3.50;;
29314;SDS011;16320;53.954;9.506;2023-12-28T14:28:03;19.52;;;2.92;;
29314;SDS011;16320;53.954;9.506;2023-12-28T14:30:33;21.27;;;3.58;;
29314;SDS011;16320;53.954;9.506;2023-12-28T14:33:01;20.73;;;3.22;;
29314;SDS011;16320;53.954;9.506;2023-12-28T14:35:31;20.83;;;3.47;;
29314;SDS011;16320;53.954;9.506;2023-12-28T14:38:03;20.13;;;3.60;;
29314;SDS011;16320;53.954;9.506;2023-12-28T14:40:34;18.95;;;3.15;;
29314;SDS011;16320;53.954;9.506;2023-12-28T14:43:03;21.50;;;3.25;;
29314;SDS011;16320;53.954;9.506;2023-12-28T14:45:31;20.02;;;4.22;;
29314;SDS011;16320;53.954;9.506;2023-12-28T14:48:00;24.15;;;4.07;;
29314;SDS011;16320;53.954;9.506;2023-12-28T14:50:30;27.13;;;4.07;;
29314;SDS011;16320;53.954;9.506;2023-12-28T14:52:58;22.35;;;4.30;;
29314;SDS011;16320;53.954;9.506;2023-12-28T14:55:26;23.90;;;2.95;;
29314;SDS011;16320;53.954;9.506;2023-12-28T14:57:54;22.58;;;3.67;;
29314;SDS011;16320;53.954;9.506;2023-12-28T15:00:23;24.45;;;4.18;;